Monday, October 16, 2017, 6:11 PM EDT
Back to Local

KDXR, Danbury Municipal Airport

Location: Danbury, CT, United States Lat: 41.367
Local Time: 6:11 PM EDT (22:11 GMT) Lon: -73.483
Time Zone: US/Eastern Elev: 459 ft

Show me the last for .
Show Decoded

2017-10-16 17:53 METAR KDXR 162153Z 34007KT 10SM CLR 11/03 A3009 RMK AO2 SLP188 T01110033 =
2017-10-16 16:53 METAR KDXR 162053Z 34007KT 10SM CLR 12/04 A3006 RMK AO2 SLP179 T01170039 52015 =
2017-10-16 15:53 METAR KDXR 161953Z 35010G17KT 10SM FEW032 12/04 A3005 RMK AO2 SLP176 T01170039 =
2017-10-16 14:57 METAR KDXR 161857Z 35013G19KT 10SM FEW032 13/04 A3003 RMK AO2 T01280044 =
2017-10-16 14:53 METAR KDXR 161853Z 32013G19KT 10SM CLR 12/04 A3003 RMK AO2 SLP167 T01220039 =
2017-10-16 13:53 METAR KDXR 161753Z 36013KT 10SM FEW032 12/04 A3002 RMK AO2 SLP163 T01170044
                 10139 20117 50004 =
2017-10-16 13:04 METAR KDXR 161704Z 32009KT 10SM SCT030 12/05 A3002 RMK AO2 T01220050 =
2017-10-16 12:53 METAR KDXR 161653Z 32011G18KT 10SM BKN030 12/05 A3003 RMK AO2 SLP166 T01220050 =
2017-10-16 11:53 METAR KDXR 161553Z 33008KT 10SM BKN030 13/06 A3002 RMK AO2 SLP164 T01280056 =
2017-10-16 10:53 METAR KDXR 161453Z 33012G18KT 10SM BKN028 12/06 A3001 RMK AO2 SLP159 T01220061
                 51017 $ =
2017-10-16 09:53 METAR KDXR 161353Z 34007KT 300V360 10SM BKN029 13/07 A3000 RMK AO2 SLP156
                 T01280067 $ =
2017-10-16 08:53 METAR KDXR 161253Z 35007KT 10SM BKN029 13/07 A2998 RMK AO2 SLP150 T01280067 $ =
2017-10-16 08:18 METAR KDXR 161218Z 35008KT 10SM BKN030 13/08 A2994 RMK AO2 T01330083 $ =
2017-10-16 07:53 METAR KDXR 161153Z 33011G16KT 10SM OVC028 14/09 A2996 RMK AO2 PRESRR SLP142
                 60002 70012 T01390089 10189 20139 53034 $ =
2017-10-16 07:18 METAR KDXR 161118Z 34010G14KT 10SM BKN025 BKN032 BKN041 14/10 A2991 RMK AO2
                 T01440100 $ =
2017-10-16 06:53 METAR KDXR 161053Z AUTO VRB04KT 10SM SCT037 BKN070 BKN120 15/09 A2990 RMK AO2
                 SLP122 T01500094 $ =
2017-10-16 05:53 METAR KDXR 160953Z AUTO VRB05KT 10SM FEW120 16/11 A2987 RMK AO2 SLP111 T01560106
                 $ =
2017-10-16 04:53 METAR KDXR 160853Z AUTO 30006KT 10SM OVC110 16/13 A2986 RMK AO2 RAE37 SLP106
                 P0000 60002 T01610133 53008 $ =
2017-10-16 03:53 METAR KDXR 160753Z AUTO 25004KT 10SM -RA FEW060 BKN075 OVC090 16/13 A2984 RMK
                 AO2 RAB03 SLP101 P0001 T01610133 $ =
2017-10-16 02:53 METAR KDXR 160653Z AUTO 27007KT 10SM SCT050 OVC075 17/14 A2983 RMK AO2
                 RAB0558E38 SLP099 P0001 T01720144 $ =
2017-10-16 02:11 METAR KDXR 160611Z AUTO 28006KT 7SM -RA FEW018 BKN044 OVC055 18/16 A2983 RMK AO2
                 RAB0558 P0001 T01830161 $ =
2017-10-16 01:53 METAR KDXR 160553Z AUTO 29008KT 10SM FEW012 BKN018 OVC044 19/17 A2983 RMK AO2
                 RAE41 SLP098 P0003 60010 T01890167 10211 20189 53010 $ =
2017-10-16 01:42 METAR KDXR 160542Z AUTO 29006G17KT 10SM SCT010 BKN019 OVC044 19/17 A2982 RMK AO2
                 RAE41 P0003 T01940172 $ =
2017-10-16 01:32 METAR KDXR 160532Z AUTO 25009G14KT 7SM -RA FEW007 BKN013 OVC031 19/18 A2982 RMK
                 AO2 P0003 T01940183 $ =
2017-10-16 01:16 METAR KDXR 160516Z AUTO 26007KT 3SM -RA BR SCT009 BKN015 OVC033 19/18 A2982 RMK
                 AO2 P0003 T01940183 $ =
2017-10-16 01:01 METAR KDXR 160501Z AUTO 24011KT 3SM -RA BR FEW012 SCT018 OVC032 20/18 A2982 RMK
                 AO2 P0001 T02000183 $ =
2017-10-16 00:53 METAR KDXR 160453Z AUTO 23008KT 2SM -RA BR SCT016 BKN020 OVC036 20/18 A2981 RMK
                 AO2 RAB24 SLP092 P0007 T02000183 402440139 $ =
2017-10-16 00:49 METAR KDXR 160449Z AUTO 23011KT 2SM +RA BR BKN016 BKN020 OVC028 20/18 A2981 RMK
                 AO2 RAB24 P0007 $ =
2017-10-15 23:53 METAR KDXR 160353Z AUTO 21010KT 10SM OVC017 21/17 A2980 RMK AO2 SLP087 T02060172
                 $ =
2017-10-15 22:53 METAR KDXR 160253Z AUTO 22012KT 10SM OVC019 21/17 A2981 RMK AO2 SLP091 T02060167
                 58005 $ =
2017-10-15 21:53 METAR KDXR 160153Z 22011KT 10SM OVC019 20/16 A2982 RMK AO2 SLP095 T02000161 $ =
2017-10-15 20:53 METAR KDXR 160053Z 24012KT 10SM BKN019 20/16 A2982 RMK AO2 SLP095 T02000161 $ =
2017-10-15 19:53 METAR KDXR 152353Z 22012G18KT 10SM BKN019 21/16 A2982 RMK AO2 SLP096 T02060161
                 10244 20206 56013 $ =
2017-10-15 18:53 METAR KDXR 152253Z 22009G17KT 10SM OVC020 21/17 A2983 RMK AO2 SLP098 T02110167 $
                 =

Support USWX by starting your Amazon purchase here.